AL04 weather

Casale Monferrato Airport
Casale Monferrato, Piedmont, Italy

Public forecast

Using degrees Celsius for public forecast. Weather courtesy of forecast.io.

Closest aviation weather report (METAR) to Casale Monferrato Airport

Report is more than 2 hours old.

Closest report is Cameri Air Base [MIL], 26.7 nm (49.4 km) NNE. Retrieved 2020/02/17 17:55 UTC (3 hours ago):

LIMN 171755Z 13002KT 2000 BR BKN010 SCT025 09/08 Q1022 RMK OVC VIS MIN 2000 YLO

Closest aviation forecast (TAF) to Casale Monferrato Airport

Forecast is more than 12 hours old.

Closest forecast is Cameri Air Base [MIL], 26.7 nm (49.4 km) NNE. Retrieved 2010/11/18 12:24 UTC (9 years ago):

TAF TAF LIMN 181100Z 1812/1921 VRB03KT 1500 RA BR BKN030